createdAt,value
2023-03-29T00:00:23.765Z,9.40
2023-03-29T00:01:34.855Z,9.43
2023-03-29T00:02:24.874Z,9.44
2023-03-29T00:03:23.805Z,9.46
2023-03-29T00:04:23.782Z,9.41
2023-03-29T00:05:23.722Z,9.35
2023-03-29T00:06:23.724Z,9.41
2023-03-29T00:07:23.752Z,9.41
2023-03-29T00:08:23.697Z,9.32
2023-03-29T00:09:23.690Z,9.16
2023-03-29T00:10:23.712Z,9.10
2023-03-29T00:11:23.703Z,9.11
2023-03-29T00:12:23.670Z,9.09
2023-03-29T00:13:23.686Z,9.09
2023-03-29T00:14:23.700Z,9.05
2023-03-29T00:15:23.683Z,9.09
2023-03-29T00:16:23.746Z,9.14
2023-03-29T00:17:23.649Z,9.21
2023-03-29T00:18:23.639Z,9.22
2023-03-29T00:19:23.653Z,9.28
2023-03-29T00:20:23.654Z,9.31
2023-03-29T00:21:23.674Z,9.31
2023-03-29T00:22:23.723Z,9.38
2023-03-29T00:23:23.690Z,9.37
2023-03-29T00:24:23.689Z,9.38
2023-03-29T00:25:23.715Z,9.40
2023-03-29T00:26:23.708Z,9.42
2023-03-29T00:27:23.763Z,9.42
2023-03-29T00:28:24.326Z,9.50
2023-03-29T00:29:23.786Z,9.55
2023-03-29T00:30:23.840Z,9.51
2023-03-29T00:31:23.890Z,9.45
2023-03-29T00:32:23.941Z,9.39
2023-03-29T00:33:23.956Z,9.34
2023-03-29T00:34:24.001Z,9.33
2023-03-29T00:35:24.040Z,9.33
2023-03-29T00:36:24.024Z,9.39
2023-03-29T00:37:23.981Z,9.41
2023-03-29T00:38:24.047Z,9.37
2023-03-29T00:39:23.991Z,9.32
2023-03-29T00:40:24.005Z,9.36
2023-03-29T00:41:24.071Z,9.32
2023-03-29T00:42:24.073Z,9.37
2023-03-29T00:43:24.221Z,9.40
2023-03-29T00:44:24.188Z,9.44
2023-03-29T00:45:24.206Z,9.33
2023-03-29T00:46:24.326Z,9.34
2023-03-29T00:47:24.337Z,9.32
2023-03-29T00:48:24.385Z,9.24
2023-03-29T00:49:24.396Z,9.26
2023-03-29T00:50:24.437Z,9.24
2023-03-29T00:51:24.489Z,9.08
2023-03-29T00:52:24.560Z,9.12
2023-03-29T00:53:24.581Z,9.14
2023-03-29T00:54:24.614Z,9.16
2023-03-29T00:55:24.678Z,9.16
2023-03-29T00:56:24.692Z,9.21
2023-03-29T00:57:26.536Z,9.22
2023-03-29T00:58:24.743Z,9.19
2023-03-29T00:59:24.766Z,9.13
2023-03-29T01:00:24.732Z,9.10
2023-03-29T01:01:24.782Z,9.11
2023-03-29T01:02:24.750Z,9.15
2023-03-29T01:03:24.959Z,9.16
2023-03-29T01:04:24.693Z,9.17
2023-03-29T01:05:24.701Z,9.19
2023-03-29T01:06:24.736Z,9.19
2023-03-29T01:07:24.673Z,9.17
2023-03-29T01:08:24.666Z,9.12
2023-03-29T01:09:24.697Z,9.03
2023-03-29T01:10:24.685Z,9.06
2023-03-29T01:11:24.688Z,9.06
2023-03-29T01:12:24.638Z,9.12
2023-03-29T01:13:24.672Z,9.14
2023-03-29T01:14:24.640Z,9.13
2023-03-29T01:15:24.630Z,9.11
2023-03-29T01:16:24.661Z,9.11
2023-03-29T01:17:24.650Z,9.08
2023-03-29T01:18:24.638Z,9.12
2023-03-29T01:19:24.575Z,9.09
2023-03-29T01:20:24.607Z,9.14
2023-03-29T01:21:24.560Z,9.14
2023-03-29T01:22:24.602Z,9.10
2023-03-29T01:23:24.600Z,9.14
2023-03-29T01:24:24.577Z,9.10
2023-03-29T01:25:24.580Z,9.11
2023-03-29T01:26:24.579Z,9.19
2023-03-29T01:27:24.539Z,9.20
2023-03-29T01:28:24.560Z,9.14
2023-03-29T01:29:24.503Z,9.08
2023-03-29T01:30:24.556Z,9.07
2023-03-29T01:31:24.582Z,9.02
2023-03-29T01:32:24.498Z,9.03
2023-03-29T01:33:24.527Z,9.05
2023-03-29T01:34:24.490Z,9.09
2023-03-29T01:35:24.489Z,9.09
2023-03-29T01:36:24.499Z,9.05
2023-03-29T01:37:24.513Z,9.07
2023-03-29T01:38:24.522Z,9.10
2023-03-29T01:39:24.462Z,9.11
2023-03-29T01:40:24.471Z,9.10
2023-03-29T01:41:24.459Z,9.10
2023-03-29T01:42:24.437Z,9.11
2023-03-29T01:43:24.490Z,9.17
2023-03-29T01:44:24.562Z,9.21
2023-03-29T01:45:24.624Z,9.21
2023-03-29T01:46:24.718Z,9.18
2023-03-29T01:47:24.751Z,9.22
2023-03-29T01:48:24.694Z,9.26
2023-03-29T01:49:24.742Z,9.24
2023-03-29T01:50:24.705Z,9.22
2023-03-29T01:51:24.772Z,9.21
2023-03-29T01:52:24.832Z,9.19
2023-03-29T01:53:24.892Z,9.21
2023-03-29T01:54:24.948Z,9.20
2023-03-29T01:55:24.985Z,9.17
2023-03-29T01:56:25.013Z,9.11
2023-03-29T01:57:25.259Z,9.13
2023-03-29T01:58:25.067Z,9.15
2023-03-29T01:59:25.090Z,9.14
2023-03-29T02:00:25.128Z,9.10
2023-03-29T02:01:25.167Z,9.09
2023-03-29T02:02:25.268Z,9.13
2023-03-29T02:03:25.326Z,9.16
2023-03-29T02:04:25.214Z,9.19
2023-03-29T02:05:25.230Z,9.22
2023-03-29T02:06:25.287Z,9.27
2023-03-29T02:07:25.351Z,9.26
2023-03-29T02:08:25.393Z,9.20
2023-03-29T02:09:25.461Z,9.15
2023-03-29T02:10:25.458Z,9.09
2023-03-29T02:11:25.513Z,9.06
2023-03-29T02:12:25.572Z,9.02
2023-03-29T02:13:25.625Z,8.89
2023-03-29T02:14:25.634Z,8.87
2023-03-29T02:15:25.708Z,8.92
2023-03-29T02:16:25.696Z,8.94
2023-03-29T02:17:25.773Z,8.90
2023-03-29T02:18:25.824Z,8.92
2023-03-29T02:19:25.842Z,8.95
2023-03-29T02:20:25.830Z,8.97
2023-03-29T02:21:25.895Z,8.96
2023-03-29T02:22:25.889Z,8.98
2023-03-29T02:23:25.987Z,9.02
2023-03-29T02:24:25.955Z,9.03
2023-03-29T02:25:26.085Z,9.03
2023-03-29T02:26:26.065Z,9.05
2023-03-29T02:27:26.077Z,9.07
2023-03-29T02:28:26.161Z,9.04
2023-03-29T02:29:26.219Z,8.99
2023-03-29T02:30:26.259Z,8.98
2023-03-29T02:31:26.381Z,9.01
2023-03-29T02:32:26.367Z,8.97
2023-03-29T02:33:26.440Z,9.00
2023-03-29T02:34:26.429Z,9.02
2023-03-29T02:35:26.490Z,8.97
2023-03-29T02:36:26.562Z,8.99
2023-03-29T02:37:26.667Z,9.00
2023-03-29T02:38:26.734Z,9.01
2023-03-29T02:39:26.718Z,9.02
2023-03-29T02:40:26.787Z,9.00
2023-03-29T02:41:26.858Z,8.96
2023-03-29T02:42:26.904Z,8.81
2023-03-29T02:43:27.002Z,8.80
2023-03-29T02:44:27.033Z,8.83
2023-03-29T02:45:27.078Z,8.69
2023-03-29T02:46:27.143Z,8.60
2023-03-29T02:47:27.142Z,8.64
2023-03-29T02:48:27.169Z,8.68
2023-03-29T02:49:27.150Z,8.70
2023-03-29T02:50:27.175Z,8.68
2023-03-29T02:51:27.219Z,8.58
2023-03-29T02:52:27.242Z,8.54
2023-03-29T02:53:27.240Z,8.52
2023-03-29T02:54:27.298Z,8.55
2023-03-29T02:55:27.306Z,8.56
2023-03-29T02:56:27.315Z,8.57
2023-03-29T02:57:27.395Z,8.57
2023-03-29T02:58:27.429Z,8.61
2023-03-29T02:59:27.480Z,8.63
2023-03-29T03:00:27.507Z,8.60
2023-03-29T03:01:27.625Z,8.60
2023-03-29T03:02:27.720Z,8.56
2023-03-29T03:03:27.808Z,8.46
2023-03-29T03:04:27.672Z,8.40
2023-03-29T03:05:27.744Z,8.38
2023-03-29T03:06:27.734Z,8.40
2023-03-29T03:07:27.793Z,8.34
2023-03-29T03:08:27.865Z,8.29
2023-03-29T03:09:28.894Z,8.26
2023-03-29T03:10:27.944Z,8.18
2023-03-29T03:11:27.991Z,8.17
2023-03-29T03:12:28.040Z,8.21
2023-03-29T03:13:28.115Z,8.23
2023-03-29T03:14:28.135Z,8.20
2023-03-29T03:15:28.173Z,8.23
2023-03-29T03:16:28.288Z,8.22
2023-03-29T03:17:28.308Z,8.24
2023-03-29T03:18:28.400Z,8.24
2023-03-29T03:19:28.434Z,8.23
2023-03-29T03:20:28.548Z,8.19
2023-03-29T03:21:28.553Z,8.13
2023-03-29T03:22:28.582Z,8.18
2023-03-29T03:23:28.673Z,8.11
2023-03-29T03:24:28.688Z,8.13
2023-03-29T03:25:28.764Z,8.15
2023-03-29T03:26:28.796Z,8.11
2023-03-29T03:27:28.856Z,8.15
2023-03-29T03:28:28.960Z,8.11
2023-03-29T03:29:28.948Z,8.10
2023-03-29T03:30:29.024Z,8.13
2023-03-29T03:31:29.077Z,8.04
2023-03-29T03:32:29.069Z,7.97
2023-03-29T03:33:29.153Z,7.95
2023-03-29T03:34:29.161Z,7.96
2023-03-29T03:35:29.221Z,7.85
2023-03-29T03:36:29.237Z,7.91
2023-03-29T03:37:29.228Z,8.00
2023-03-29T03:38:29.232Z,8.00
2023-03-29T03:39:29.304Z,8.10
2023-03-29T03:40:29.312Z,8.10
2023-03-29T03:41:29.296Z,8.15
2023-03-29T03:42:29.330Z,8.18
2023-03-29T03:43:29.365Z,8.19
2023-03-29T03:44:29.383Z,8.23
2023-03-29T03:45:29.593Z,8.23
2023-03-29T03:46:29.868Z,8.25
2023-03-29T03:47:29.527Z,8.22
2023-03-29T03:48:29.514Z,8.16
2023-03-29T03:49:29.514Z,8.16
2023-03-29T03:50:29.594Z,8.19
2023-03-29T03:51:29.615Z,8.19
2023-03-29T03:52:29.593Z,8.18
2023-03-29T03:53:29.639Z,8.18
2023-03-29T03:54:29.691Z,8.21
2023-03-29T03:55:29.705Z,8.19
2023-03-29T03:56:29.812Z,8.11
2023-03-29T03:57:29.829Z,8.04
2023-03-29T03:58:29.913Z,8.02
2023-03-29T03:59:29.943Z,7.98
2023-03-29T04:00:29.953Z,8.02
2023-03-29T04:01:29.980Z,8.03
2023-03-29T04:02:30.089Z,8.02
2023-03-29T04:03:30.114Z,7.98
2023-03-29T04:04:30.145Z,7.94
2023-03-29T04:05:30.191Z,7.92
2023-03-29T04:06:30.279Z,7.95
2023-03-29T04:07:30.305Z,7.94
2023-03-29T04:08:30.309Z,7.98
2023-03-29T04:09:30.372Z,7.98
2023-03-29T04:10:30.419Z,7.99
2023-03-29T04:11:30.436Z,8.04
2023-03-29T04:12:30.472Z,8.06
2023-03-29T04:13:30.617Z,8.05
2023-03-29T04:14:30.649Z,8.01
2023-03-29T04:15:30.712Z,7.98
2023-03-29T04:16:30.888Z,7.95
2023-03-29T04:17:30.743Z,7.89
2023-03-29T04:18:30.976Z,7.79
2023-03-29T04:19:30.927Z,7.76
2023-03-29T04:20:30.920Z,7.78
2023-03-29T04:21:31.012Z,7.81
2023-03-29T04:22:31.029Z,7.85
2023-03-29T04:23:31.138Z,7.81
2023-03-29T04:24:31.153Z,7.77
2023-03-29T04:25:31.198Z,7.73
2023-03-29T04:26:31.244Z,7.69
2023-03-29T04:27:31.325Z,7.64
2023-03-29T04:28:31.380Z,7.61
2023-03-29T04:29:31.372Z,7.65
2023-03-29T04:30:31.456Z,7.70
2023-03-29T04:31:31.537Z,7.71
2023-03-29T04:32:31.533Z,7.65
2023-03-29T04:33:31.560Z,7.53
2023-03-29T04:34:31.647Z,7.55
2023-03-29T04:35:31.860Z,7.57
2023-03-29T04:36:31.732Z,7.51
2023-03-29T04:37:31.800Z,7.42
2023-03-29T04:38:31.848Z,7.37
2023-03-29T04:39:31.924Z,7.42
2023-03-29T04:40:31.917Z,7.46
2023-03-29T04:41:31.952Z,7.46
2023-03-29T04:42:32.024Z,7.45
2023-03-29T04:43:32.093Z,7.46
2023-03-29T04:44:32.049Z,7.47
2023-03-29T04:45:32.106Z,7.49
2023-03-29T04:46:32.173Z,7.42
2023-03-29T04:47:32.172Z,7.19
2023-03-29T04:48:32.279Z,7.02
2023-03-29T04:49:32.294Z,6.91
2023-03-29T04:50:32.365Z,6.97
2023-03-29T04:51:32.349Z,7.15
2023-03-29T04:52:32.412Z,7.32
2023-03-29T04:53:32.463Z,7.39
2023-03-29T04:54:32.468Z,7.38
2023-03-29T04:55:32.534Z,7.35
2023-03-29T04:56:32.577Z,7.41
2023-03-29T04:57:32.575Z,7.45
2023-03-29T04:58:32.861Z,7.46
2023-03-29T04:59:32.617Z,7.40
2023-03-29T05:01:52.474Z,7.44
2023-03-29T05:02:52.420Z,7.53
2023-03-29T05:03:52.384Z,7.54
2023-03-29T05:04:52.344Z,7.54
2023-03-29T05:05:52.362Z,7.62
2023-03-29T05:06:52.326Z,7.69
2023-03-29T05:07:52.308Z,7.75
2023-03-29T05:08:52.323Z,7.75
2023-03-29T05:09:52.365Z,7.75
2023-03-29T05:10:52.324Z,7.80
2023-03-29T05:11:52.380Z,7.77
2023-03-29T05:12:52.296Z,7.83
2023-03-29T05:13:52.314Z,7.85
2023-03-29T05:14:52.322Z,7.73
2023-03-29T05:15:52.570Z,7.74
2023-03-29T05:16:52.350Z,7.74
2023-03-29T05:17:52.326Z,7.63
2023-03-29T05:18:52.284Z,7.67
2023-03-29T05:19:52.265Z,7.77
2023-03-29T05:20:52.258Z,7.73
2023-03-29T05:21:52.964Z,7.71
2023-03-29T05:22:52.248Z,7.64
2023-03-29T05:23:52.204Z,7.66
2023-03-29T05:24:52.237Z,7.62
2023-03-29T05:25:52.242Z,7.59
2023-03-29T05:26:52.241Z,7.59
2023-03-29T05:27:52.228Z,7.56
2023-03-29T05:28:52.324Z,7.65
2023-03-29T05:29:52.230Z,7.69
2023-03-29T05:30:53.278Z,7.74
2023-03-29T05:31:52.467Z,7.84
2023-03-29T05:32:52.357Z,7.91
2023-03-29T05:33:52.372Z,7.81
2023-03-29T05:34:52.340Z,7.82
2023-03-29T05:35:52.471Z,7.92
2023-03-29T05:36:52.412Z,7.85
2023-03-29T05:37:52.482Z,7.95
2023-03-29T05:38:53.242Z,7.98
2023-03-29T05:39:53.397Z,7.94
2023-03-29T05:40:53.488Z,7.94
2023-03-29T05:41:52.523Z,7.92
2023-03-29T05:42:52.526Z,7.92
2023-03-29T05:43:52.607Z,7.96
2023-03-29T05:44:54.475Z,7.99
2023-03-29T05:47:20.742Z,7.98
2023-03-29T05:48:12.803Z,7.93
2023-03-29T05:49:12.960Z,7.96
2023-03-29T05:50:13.072Z,7.95
2023-03-29T05:51:12.978Z,7.95
2023-03-29T05:52:13.947Z,8.03
2023-03-29T05:53:12.903Z,8.07
2023-03-29T05:54:12.797Z,8.08
2023-03-29T05:55:12.790Z,8.08
2023-03-29T05:56:12.798Z,8.08
2023-03-29T05:57:12.884Z,8.04
2023-03-29T05:58:12.938Z,8.04
2023-03-29T05:59:12.972Z,8.02
2023-03-29T06:00:13.030Z,8.07
2023-03-29T06:01:12.905Z,8.09
2023-03-29T06:02:12.892Z,8.01
2023-03-29T06:03:20.235Z,7.94
2023-03-29T06:04:13.995Z,8.00
2023-03-29T06:05:12.875Z,7.98
2023-03-29T06:06:12.880Z,7.96
2023-03-29T06:07:12.872Z,7.87
2023-03-29T06:08:12.892Z,7.93
2023-03-29T06:09:12.837Z,8.01
2023-03-29T06:10:12.838Z,8.09
2023-03-29T06:11:12.981Z,8.15
2023-03-29T06:12:12.845Z,8.18
2023-03-29T06:13:12.912Z,8.02
2023-03-29T06:14:12.821Z,7.87
2023-03-29T06:15:12.845Z,7.88
2023-03-29T06:16:12.832Z,7.94
2023-03-29T06:17:12.867Z,8.00
2023-03-29T06:18:12.842Z,8.08
2023-03-29T06:19:12.819Z,8.09
2023-03-29T06:20:12.822Z,8.16
2023-03-29T06:21:12.758Z,8.06
2023-03-29T06:22:14.800Z,7.99
2023-03-29T06:23:12.781Z,8.02
2023-03-29T06:24:12.783Z,8.04
2023-03-29T06:25:12.796Z,8.13
2023-03-29T06:26:13.401Z,8.22
2023-03-29T06:27:12.816Z,8.22
2023-03-29T06:28:12.671Z,8.22
2023-03-29T06:29:12.745Z,8.23
2023-03-29T06:30:13.477Z,8.19
2023-03-29T06:31:12.865Z,8.18
2023-03-29T06:32:12.847Z,8.21
2023-03-29T06:33:12.921Z,8.18
2023-03-29T06:34:13.002Z,8.23
2023-03-29T06:35:13.438Z,8.27
2023-03-29T06:36:13.104Z,8.32
2023-03-29T06:37:13.099Z,8.29
2023-03-29T06:38:13.253Z,8.26
2023-03-29T06:39:13.266Z,8.20
2023-03-29T06:40:13.430Z,8.28
2023-03-29T06:41:13.478Z,8.20
2023-03-29T06:42:21.310Z,8.15
2023-03-29T06:43:14.468Z,8.06
2023-03-29T06:44:13.526Z,7.95
2023-03-29T06:45:15.208Z,7.98
2023-03-29T06:46:15.493Z,8.08
2023-03-29T06:47:24.389Z,8.17
2023-03-29T06:48:13.569Z,8.05
2023-03-29T06:49:13.641Z,7.97
2023-03-29T06:50:14.539Z,7.96
2023-03-29T06:51:13.600Z,7.92
2023-03-29T06:52:13.545Z,7.72
2023-03-29T06:53:14.846Z,7.79
2023-03-29T06:54:13.425Z,7.83
2023-03-29T06:55:13.679Z,7.91
2023-03-29T06:56:13.545Z,7.88
2023-03-29T06:57:13.625Z,7.93
2023-03-29T06:58:13.942Z,8.00
2023-03-29T06:59:14.711Z,8.04
2023-03-29T07:01:34.984Z,8.17
2023-03-29T07:02:33.764Z,8.29
2023-03-29T07:03:33.647Z,8.42
2023-03-29T07:04:33.847Z,8.49
2023-03-29T07:05:33.602Z,8.55
2023-03-29T07:06:33.671Z,8.56
2023-03-29T07:07:33.666Z,8.53
2023-03-29T07:08:33.672Z,8.57
2023-03-29T07:09:33.719Z,8.49
2023-03-29T07:10:33.608Z,8.35
2023-03-29T07:11:33.654Z,8.38
2023-03-29T07:12:33.619Z,8.29
2023-03-29T07:13:33.607Z,8.29
2023-03-29T07:14:33.764Z,8.25
2023-03-29T07:15:33.627Z,8.30
2023-03-29T07:16:33.618Z,8.35
2023-03-29T07:17:33.563Z,8.38
2023-03-29T07:18:34.207Z,8.46
2023-03-29T07:19:33.709Z,8.47
2023-03-29T07:20:33.602Z,8.54
2023-03-29T07:21:35.376Z,8.46
2023-03-29T07:22:33.610Z,8.49
2023-03-29T07:23:33.515Z,8.58
2023-03-29T07:24:33.594Z,8.59
2023-03-29T07:25:33.595Z,8.67
2023-03-29T07:26:33.501Z,8.75
2023-03-29T07:27:33.605Z,8.83
2023-03-29T07:28:33.640Z,8.82
2023-03-29T07:29:33.547Z,8.81
2023-03-29T07:30:33.779Z,8.87
2023-03-29T07:31:33.570Z,8.90
2023-03-29T07:32:33.516Z,8.93
2023-03-29T07:33:33.667Z,8.93
2023-03-29T07:34:33.449Z,9.01
2023-03-29T07:35:33.875Z,8.93
2023-03-29T07:36:33.469Z,8.87
2023-03-29T07:37:33.438Z,8.70
2023-03-29T07:38:33.579Z,8.68
2023-03-29T07:39:33.495Z,8.74
2023-03-29T07:40:33.429Z,8.83
2023-03-29T07:41:33.436Z,8.86
2023-03-29T07:42:33.434Z,8.96
2023-03-29T07:43:33.425Z,8.97
2023-03-29T07:44:33.408Z,9.07
2023-03-29T07:45:33.790Z,9.11
2023-03-29T07:46:33.368Z,9.20
2023-03-29T07:47:33.457Z,9.20
2023-03-29T07:48:33.476Z,9.20
2023-03-29T07:49:33.381Z,9.07
2023-03-29T07:50:33.464Z,9.06
2023-03-29T07:51:33.426Z,9.12
2023-03-29T07:52:33.367Z,9.04
2023-03-29T07:54:53.558Z,8.82
2023-03-29T07:55:53.447Z,8.67
2023-03-29T07:56:53.516Z,8.68
2023-03-29T07:57:53.413Z,8.68
2023-03-29T07:58:54.173Z,8.72
2023-03-29T07:59:53.426Z,8.74
2023-03-29T08:00:53.550Z,8.72
2023-03-29T08:01:53.411Z,8.79
2023-03-29T08:02:53.450Z,8.83
2023-03-29T08:03:53.556Z,8.85
2023-03-29T08:04:53.860Z,8.90
2023-03-29T08:05:53.430Z,9.00
2023-03-29T08:06:53.535Z,9.11
2023-03-29T08:07:53.454Z,9.23
2023-03-29T08:08:53.344Z,9.23
2023-03-29T08:09:54.077Z,9.19
2023-03-29T08:10:53.438Z,9.23
2023-03-29T08:11:53.411Z,9.19
2023-03-29T08:12:53.382Z,9.18
2023-03-29T08:13:53.374Z,9.21
2023-03-29T08:14:53.424Z,9.29
2023-03-29T08:15:53.359Z,9.32
2023-03-29T08:16:53.452Z,9.38
2023-03-29T08:17:53.579Z,9.35
2023-03-29T08:18:53.458Z,9.36
2023-03-29T08:19:54.294Z,9.27
2023-03-29T08:20:54.411Z,9.16
2023-03-29T08:21:53.440Z,9.09
2023-03-29T08:22:53.421Z,8.97
2023-03-29T08:23:53.475Z,9.03
2023-03-29T08:24:53.580Z,9.17
2023-03-29T08:25:53.559Z,9.24
2023-03-29T08:26:53.622Z,9.38
2023-03-29T08:27:53.723Z,9.44
2023-03-29T08:28:53.766Z,9.49
2023-03-29T08:29:53.939Z,9.42
2023-03-29T08:30:53.959Z,9.46
2023-03-29T08:31:53.993Z,9.60
2023-03-29T08:32:55.314Z,9.68
2023-03-29T08:33:54.134Z,9.70
2023-03-29T08:34:54.248Z,9.65
2023-03-29T08:35:54.196Z,9.52
2023-03-29T08:36:54.271Z,9.39
2023-03-29T08:37:54.386Z,9.40
2023-03-29T08:38:54.275Z,9.37
2023-03-29T08:39:54.335Z,9.37
2023-03-29T08:40:54.427Z,9.37
2023-03-29T08:41:54.411Z,9.34
2023-03-29T08:42:54.393Z,9.42
2023-03-29T08:43:54.519Z,9.56
2023-03-29T08:44:54.765Z,9.58
2023-03-29T08:45:54.660Z,9.51
2023-03-29T08:46:54.766Z,9.47
2023-03-29T08:47:54.676Z,9.40
2023-03-29T08:48:54.692Z,9.51
2023-03-29T08:49:54.803Z,9.55
2023-03-29T08:50:54.745Z,9.44
2023-03-29T08:51:54.823Z,9.37
2023-03-29T08:52:54.825Z,9.27
2023-03-29T08:53:54.837Z,9.29
2023-03-29T08:54:55.278Z,9.36
2023-03-29T08:55:54.935Z,9.33
2023-03-29T08:56:55.002Z,9.23
2023-03-29T08:57:54.958Z,8.97
2023-03-29T08:58:54.958Z,8.80
2023-03-29T08:59:55.001Z,8.79
2023-03-29T09:00:55.005Z,8.80
2023-03-29T09:01:54.984Z,8.93
2023-03-29T09:02:55.163Z,9.04
2023-03-29T09:03:55.111Z,9.04
2023-03-29T09:04:55.102Z,9.12
2023-03-29T09:05:55.147Z,9.23
2023-03-29T09:06:55.224Z,9.33
2023-03-29T09:07:55.256Z,9.36
2023-03-29T09:08:55.341Z,9.36
2023-03-29T09:09:55.570Z,9.46
2023-03-29T09:10:55.430Z,9.51
2023-03-29T09:11:55.457Z,9.46
2023-03-29T09:12:55.679Z,9.54
2023-03-29T09:13:56.508Z,9.61
2023-03-29T09:14:55.585Z,9.67
2023-03-29T09:15:55.598Z,9.67
2023-03-29T09:16:55.573Z,9.59
2023-03-29T09:17:56.231Z,9.60
2023-03-29T09:18:56.223Z,9.61
2023-03-29T09:19:55.482Z,9.60
2023-03-29T09:20:55.581Z,9.58
2023-03-29T09:21:55.583Z,9.68
2023-03-29T09:22:55.550Z,9.74
2023-03-29T09:23:55.886Z,9.79
2023-03-29T09:24:55.569Z,9.62
2023-03-29T09:25:55.727Z,9.67
2023-03-29T09:26:55.613Z,9.67
2023-03-29T09:27:55.605Z,9.72
2023-03-29T09:28:55.620Z,9.86
2023-03-29T09:29:55.592Z,9.99
2023-03-29T09:30:55.695Z,10.00
2023-03-29T09:31:55.830Z,10.08
2023-03-29T09:32:55.723Z,9.88
2023-03-29T09:33:55.701Z,10.03
2023-03-29T09:34:55.726Z,10.11
2023-03-29T09:35:56.337Z,10.21
2023-03-29T09:36:55.845Z,10.26
2023-03-29T09:37:55.825Z,10.24
2023-03-29T09:38:55.902Z,10.30
2023-03-29T09:39:56.175Z,10.22
2023-03-29T09:40:57.986Z,10.24
2023-03-29T09:41:55.963Z,10.27
2023-03-29T09:42:57.793Z,10.33
2023-03-29T09:43:55.952Z,10.30
2023-03-29T09:44:55.928Z,10.33
2023-03-29T09:45:56.239Z,10.31
2023-03-29T09:46:55.951Z,10.38
2023-03-29T09:47:55.969Z,10.38
2023-03-29T09:48:55.956Z,10.49
2023-03-29T09:49:55.969Z,10.58
2023-03-29T09:50:56.036Z,10.65
2023-03-29T09:51:56.065Z,10.61
2023-03-29T09:52:56.046Z,10.66
2023-03-29T09:53:56.162Z,10.71
2023-03-29T09:54:56.161Z,10.80
2023-03-29T09:55:56.232Z,10.86
2023-03-29T09:56:56.333Z,10.89
2023-03-29T09:57:56.376Z,10.91
2023-03-29T09:58:56.430Z,10.84
2023-03-29T09:59:56.460Z,10.85
2023-03-29T10:00:57.043Z,10.97
2023-03-29T10:01:56.544Z,11.00
2023-03-29T10:02:56.642Z,10.95
2023-03-29T10:03:56.683Z,10.81
2023-03-29T10:04:56.722Z,10.79
2023-03-29T10:05:56.810Z,10.76
2023-03-29T10:06:56.762Z,10.77
2023-03-29T10:07:56.849Z,10.85
2023-03-29T10:08:56.951Z,10.89
2023-03-29T10:09:56.842Z,10.75
2023-03-29T10:10:56.937Z,10.83
2023-03-29T10:11:56.906Z,10.73
2023-03-29T10:12:56.902Z,10.86
2023-03-29T10:13:56.916Z,10.96
2023-03-29T10:14:56.912Z,11.00
2023-03-29T10:15:57.297Z,11.06
2023-03-29T10:16:57.197Z,11.10
2023-03-29T10:17:57.077Z,11.14
2023-03-29T10:18:57.099Z,10.99
2023-03-29T10:19:57.242Z,11.06
2023-03-29T10:20:57.274Z,11.14
2023-03-29T10:21:57.270Z,11.31
2023-03-29T10:22:57.316Z,11.43
2023-03-29T10:23:57.315Z,11.55
2023-03-29T10:24:57.393Z,11.57
2023-03-29T10:25:57.381Z,11.59
2023-03-29T10:26:57.408Z,11.68
2023-03-29T10:27:57.506Z,11.79
2023-03-29T10:28:58.258Z,11.77
2023-03-29T10:29:57.643Z,11.76
2023-03-29T10:30:57.732Z,11.60
2023-03-29T10:31:57.746Z,11.54
2023-03-29T10:32:57.810Z,11.68
2023-03-29T10:33:57.731Z,11.77
2023-03-29T10:34:57.745Z,11.71
2023-03-29T10:35:58.330Z,11.74
2023-03-29T10:36:57.815Z,11.68
2023-03-29T10:37:57.793Z,11.71
2023-03-29T10:38:57.877Z,11.81
2023-03-29T10:39:57.839Z,11.91
2023-03-29T10:40:57.894Z,11.96
2023-03-29T10:41:59.019Z,11.83
2023-03-29T10:42:58.037Z,11.72
2023-03-29T10:43:58.133Z,11.75
2023-03-29T10:44:58.154Z,11.81
2023-03-29T10:45:58.179Z,11.93
2023-03-29T10:46:58.107Z,12.02
2023-03-29T10:47:58.267Z,11.90
2023-03-29T10:48:58.273Z,11.95
2023-03-29T10:49:58.420Z,11.94
2023-03-29T10:50:58.440Z,12.00
2023-03-29T10:51:58.435Z,11.91
2023-03-29T10:52:58.457Z,12.05
2023-03-29T10:53:58.491Z,12.09
2023-03-29T10:54:58.451Z,12.21
2023-03-29T10:55:58.467Z,12.35
2023-03-29T10:56:58.484Z,12.45
2023-03-29T10:57:58.477Z,12.50
2023-03-29T10:58:58.448Z,12.62
2023-03-29T10:59:58.457Z,12.60
2023-03-29T11:00:58.509Z,12.56
2023-03-29T11:01:58.651Z,12.53
2023-03-29T11:02:58.688Z,12.49
2023-03-29T11:03:58.715Z,12.58
2023-03-29T11:04:58.656Z,12.65
2023-03-29T11:05:58.707Z,12.64
2023-03-29T11:06:58.783Z,12.55
2023-03-29T11:07:58.707Z,12.54
2023-03-29T11:08:58.778Z,12.39
2023-03-29T11:09:58.842Z,12.45
2023-03-29T11:10:58.868Z,12.43
2023-03-29T11:12:14.477Z,12.40
2023-03-29T11:12:59.811Z,12.45
2023-03-29T11:14:00.035Z,12.48
2023-03-29T11:14:58.850Z,12.57
2023-03-29T11:15:58.910Z,12.67
2023-03-29T11:17:06.455Z,12.79
2023-03-29T11:17:58.862Z,12.81
2023-03-29T11:18:58.803Z,12.69
2023-03-29T11:19:58.766Z,12.66
2023-03-29T11:20:58.747Z,12.70
2023-03-29T11:21:58.709Z,12.38
2023-03-29T11:22:58.775Z,12.46
2023-03-29T11:23:58.760Z,12.56
2023-03-29T11:24:58.810Z,12.68
2023-03-29T11:25:58.766Z,12.69
2023-03-29T11:26:58.682Z,12.79
2023-03-29T11:27:58.749Z,12.86
2023-03-29T11:28:58.704Z,12.76
2023-03-29T11:29:58.673Z,12.84
2023-03-29T11:30:58.907Z,13.00
2023-03-29T11:31:58.794Z,13.05
2023-03-29T11:32:58.841Z,13.05
2023-03-29T11:33:58.874Z,13.21
2023-03-29T11:34:58.883Z,13.36
2023-03-29T11:35:59.456Z,13.08
2023-03-29T11:36:58.900Z,13.19
2023-03-29T11:37:58.861Z,13.29
2023-03-29T11:38:58.938Z,13.34
2023-03-29T11:39:59.065Z,13.22
2023-03-29T11:40:58.977Z,13.33
2023-03-29T11:41:59.130Z,13.46
2023-03-29T11:42:59.092Z,13.50
2023-03-29T11:43:59.248Z,13.56
2023-03-29T11:44:59.216Z,13.67
2023-03-29T11:45:59.316Z,13.72
2023-03-29T11:46:59.352Z,13.84
2023-03-29T11:47:59.464Z,13.75
2023-03-29T11:48:59.438Z,13.85
2023-03-29T11:49:59.453Z,13.92
2023-03-29T11:50:59.524Z,14.06
2023-03-29T11:51:59.542Z,14.06
2023-03-29T11:52:59.544Z,14.02
2023-03-29T11:53:59.443Z,14.19
2023-03-29T11:54:59.518Z,14.22
2023-03-29T11:55:59.498Z,14.23
2023-03-29T11:56:59.609Z,14.29
2023-03-29T11:57:59.703Z,14.34
2023-03-29T11:58:59.612Z,14.47
2023-03-29T11:59:59.624Z,14.58
2023-03-29T12:00:59.889Z,14.69
2023-03-29T12:01:59.733Z,14.81
2023-03-29T12:02:59.721Z,14.96
2023-03-29T12:03:59.698Z,15.00
2023-03-29T12:05:10.308Z,15.10
2023-03-29T12:05:59.767Z,15.23
2023-03-29T12:06:59.706Z,15.29
2023-03-29T12:07:59.641Z,15.31
2023-03-29T12:08:59.647Z,15.24
2023-03-29T12:09:59.666Z,15.21
2023-03-29T12:10:59.707Z,15.42
2023-03-29T12:11:59.661Z,15.48
2023-03-29T12:12:59.620Z,15.50
2023-03-29T12:13:59.671Z,15.57
2023-03-29T12:14:59.586Z,15.75
2023-03-29T12:15:59.640Z,15.93
2023-03-29T12:16:59.641Z,16.00
2023-03-29T12:17:59.652Z,16.12
2023-03-29T12:18:59.556Z,16.34
2023-03-29T12:19:59.556Z,16.33
2023-03-29T12:20:59.636Z,16.29
2023-03-29T12:21:59.573Z,16.21
2023-03-29T12:22:59.688Z,16.25
2023-03-29T12:23:59.551Z,16.24
2023-03-29T12:24:59.540Z,16.22
2023-03-29T12:25:59.551Z,16.39
2023-03-29T12:26:59.512Z,16.48
2023-03-29T12:27:59.583Z,16.56
2023-03-29T12:28:59.511Z,16.75
2023-03-29T12:29:59.529Z,16.79
2023-03-29T12:30:59.586Z,16.90
2023-03-29T12:31:59.689Z,16.99
2023-03-29T12:32:59.817Z,17.04
2023-03-29T12:33:59.735Z,17.13
2023-03-29T12:34:59.768Z,17.17
2023-03-29T12:35:59.859Z,17.18
2023-03-29T12:36:59.828Z,17.12
2023-03-29T12:37:59.889Z,17.16
2023-03-29T12:38:59.898Z,17.03
2023-03-29T12:39:59.971Z,16.89
2023-03-29T12:41:00.181Z,16.93
2023-03-29T12:41:59.993Z,16.99
2023-03-29T12:42:59.923Z,16.89
2023-03-29T12:43:59.932Z,16.87
2023-03-29T12:45:00.041Z,16.93
2023-03-29T12:46:00.066Z,16.78
2023-03-29T12:46:59.963Z,16.86
2023-03-29T12:48:00.042Z,16.91
2023-03-29T12:49:00.038Z,16.87
2023-03-29T12:50:00.113Z,16.78
2023-03-29T12:51:00.157Z,16.59
2023-03-29T12:52:00.191Z,16.68
2023-03-29T12:53:00.190Z,16.83
2023-03-29T12:54:00.641Z,16.95
2023-03-29T12:55:00.371Z,16.74
2023-03-29T12:56:00.537Z,16.67
2023-03-29T12:57:00.469Z,16.73
2023-03-29T12:58:00.411Z,16.79
2023-03-29T12:59:00.442Z,16.77
2023-03-29T13:00:00.405Z,16.59
2023-03-29T13:01:01.398Z,16.47
2023-03-29T13:02:00.577Z,16.34
2023-03-29T13:03:00.589Z,16.43
2023-03-29T13:04:00.603Z,16.29
2023-03-29T13:05:00.652Z,16.25
2023-03-29T13:06:00.830Z,16.32
2023-03-29T13:07:00.721Z,16.27
2023-03-29T13:08:00.773Z,16.28
2023-03-29T13:09:00.820Z,16.46
2023-03-29T13:10:00.791Z,16.52
2023-03-29T13:11:00.961Z,16.56
2023-03-29T13:12:00.894Z,16.54
2023-03-29T13:13:00.911Z,16.37
2023-03-29T13:14:00.921Z,16.32
2023-03-29T13:15:00.935Z,16.46
2023-03-29T13:16:01.265Z,16.36